Time;durP1;ratioP1;P1;durP2;ratioP2;P2;SDS_P1;SDS_P2;PMS_P1;PMS_P2;Temp;Humidity;BMP_temperature;BMP_pressure;BME280_temperature;BME280_humidity;BME280_pressure;Samples;Min_cycle;Max_cycle;Signal;HPM_P1;HPM_P2
2022/01/15 00:02:12;;;;;;;18.77;9.00;;;;;;;3.20;100.00;103019.72;5045307;28;20134;-73
2022/01/15 00:04:39;;;;;;;26.48;10.35;;;;;;;3.17;100.00;103018.88;5027132;28;20454;-74
2022/01/15 00:07:06;;;;;;;25.92;10.38;;;;;;;3.14;100.00;103018.06;5029261;28;20084;-74
2022/01/15 00:09:32;;;;;;;31.02;9.82;;;;;;;3.13;100.00;103025.00;5035897;28;20048;-73
2022/01/15 00:11:59;;;;;;;28.02;10.93;;;;;;;3.11;100.00;103025.88;5042268;28;20045;-73
2022/01/15 00:14:29;;;;;;;35.75;10.85;;;;;;;3.11;100.00;103025.88;5038865;28;20064;-74
2022/01/15 00:17:05;;;;;;;27.55;9.38;;;;;;;3.19;100.00;103022.34;5037447;28;20037;-74
2022/01/15 00:19:41;;;;;;;34.15;11.40;;;;;;;3.19;100.00;103011.94;5038481;28;20128;-73
2022/01/15 00:22:09;;;;;;;22.75;7.47;;;;;;;3.23;100.00;103009.28;5041886;28;20043;-74
2022/01/15 00:24:38;;;;;;;29.45;10.50;;;;;;;3.17;100.00;103006.75;5041621;28;20457;-73
2022/01/15 00:27:06;;;;;;;16.85;9.15;;;;;;;3.19;100.00;102998.97;5040563;28;20239;-73
2022/01/15 00:29:33;;;;;;;31.30;11.50;;;;;;;3.18;100.00;102995.50;5043794;28;20093;-73
2022/01/15 00:32:01;;;;;;;23.85;11.90;;;;;;;3.14;100.00;103007.69;5041457;28;20041;-73
2022/01/15 00:34:28;;;;;;;31.05;10.75;;;;;;;3.16;100.00;102994.63;5040718;28;20176;-73
2022/01/15 00:36:55;;;;;;;30.00;9.32;;;;;;;3.15;100.00;102988.63;5042480;28;20142;-73
2022/01/15 00:39:22;;;;;;;16.70;8.65;;;;;;;3.18;100.00;102985.09;5040270;28;20048;-74
2022/01/15 00:44:23;;;;;;;27.20;8.93;;;;;;;3.19;100.00;102986.81;5059677;28;20414;-72
2022/01/15 00:46:53;;;;;;;49.22;12.90;;;;;;;3.18;100.00;102989.44;5059282;28;20051;-73
2022/01/15 00:49:20;;;;;;;41.58;13.20;;;;;;;3.20;100.00;102983.34;5057767;28;20091;-74
2022/01/15 00:51:46;;;;;;;28.55;9.95;;;;;;;3.22;100.00;102984.19;5064973;28;20043;-73
2022/01/15 00:54:13;;;;;;;22.52;13.07;;;;;;;3.15;100.00;102981.69;5070038;28;20063;-72
2022/01/15 00:56:39;;;;;;;20.48;9.52;;;;;;;3.15;100.00;102967.88;5076119;28;20072;-73
2022/01/15 00:59:07;;;;;;;24.00;8.30;;;;;;;3.12;100.00;102971.34;5074194;28;20078;-73
2022/01/15 01:01:35;;;;;;;23.30;10.13;;;;;;;3.13;100.00;102965.25;5059793;28;20055;-72
2022/01/15 01:04:01;;;;;;;28.02;11.98;;;;;;;3.14;100.00;102972.19;5054465;28;20053;-75
2022/01/15 01:06:28;;;;;;;27.67;7.80;;;;;;;3.16;100.00;102971.28;5056726;28;20047;-74
2022/01/15 01:08:54;;;;;;;29.58;11.00;;;;;;;3.13;100.00;102967.84;5055663;28;20125;-73
2022/01/15 01:11:30;;;;;;;24.65;8.15;;;;;;;3.12;100.00;102967.91;5054078;28;20426;-73
2022/01/15 01:25:05;;;;;;;25.02;8.40;;;;;;;2.98;100.00;102959.44;5052656;28;20048;-72
2022/01/15 01:27:43;;;;;;;26.13;9.48;;;;;;;2.98;100.00;102954.25;5051213;28;20973;-72
2022/01/15 01:30:16;;;;;;;17.35;8.98;;;;;;;2.99;100.00;102954.22;5053584;28;20040;-71
2022/01/15 01:32:54;;;;;;;18.13;8.25;;;;;;;3.00;100.00;102934.28;5051987;28;20051;-73
2022/01/15 01:35:34;;;;;;;16.83;8.10;;;;;;;2.97;100.00;102939.53;5051686;28;20047;-71
2022/01/15 01:38:10;;;;;;;11.95;8.27;;;;;;;2.99;100.00;102933.44;5049615;28;20062;-71
2022/01/15 01:40:45;;;;;;;17.85;7.32;;;;;;;2.97;100.00;102931.75;5053583;28;20044;-72
2022/01/15 01:43:41;;;;;;;20.27;7.82;;;;;;;2.95;100.00;102943.88;5051324;28;20265;-72
2022/01/15 01:46:19;;;;;;;26.50;8.45;;;;;;;2.90;100.00;102940.50;5051884;28;20060;-72
2022/01/15 01:48:48;;;;;;;19.38;9.98;;;;;;;2.96;100.00;102937.81;5052069;28;20111;-71
2022/01/15 01:51:21;;;;;;;18.42;7.57;;;;;;;2.98;100.00;102936.91;5056143;28;20074;-71
2022/01/15 01:53:48;;;;;;;24.17;8.27;;;;;;;2.94;100.00;102934.38;5048401;28;20046;-72
2022/01/15 01:56:15;;;;;;;14.68;5.57;;;;;;;3.01;100.00;102938.59;5038746;28;20049;-71
2022/01/15 01:58:42;;;;;;;23.92;8.93;;;;;;;2.99;100.00;102924.81;5040813;28;20041;-71
2022/01/15 02:01:08;;;;;;;18.20;9.60;;;;;;;3.02;100.00;102929.94;5042503;28;20089;-71
2022/01/15 02:03:36;;;;;;;29.05;9.25;;;;;;;2.98;100.00;102917.91;5039315;28;20044;-74
2022/01/15 02:06:04;;;;;;;25.00;8.70;;;;;;;3.00;100.00;102917.00;5038032;28;20138;-71
2022/01/15 02:08:35;;;;;;;24.88;9.32;;;;;;;2.94;100.00;102922.28;5039821;28;20076;-75
2022/01/15 02:11:03;;;;;;;30.48;11.25;;;;;;;2.95;100.00;102928.31;5038484;28;20059;-73
2022/01/15 02:13:30;;;;;;;32.38;9.20;;;;;;;2.97;100.00;102924.81;5041515;28;20060;-73
2022/01/15 02:15:57;;;;;;;26.85;9.88;;;;;;;2.98;100.00;102923.09;5037720;28;20052;-72
2022/01/15 02:18:24;;;;;;;28.75;11.43;;;;;;;2.99;100.00;102930.00;5039722;28;20052;-74
2022/01/15 02:23:31;;;;;;;21.95;8.35;;;;;;;3.00;100.00;102921.31;5039415;28;20051;-73
2022/01/15 02:23:50;;;;;;;17.83;5.50;;;;;;;3.03;100.00;102916.97;5037433;28;20138;-71
2022/01/15 02:26:18;;;;;;;16.55;8.73;;;;;;;3.07;100.00;102912.59;5039482;28;20113;-72
2022/01/15 02:28:49;;;;;;;22.73;8.75;;;;;;;3.08;100.00;102919.50;5036715;28;20474;-73
2022/01/15 02:31:17;;;;;;;29.80;8.55;;;;;;;3.07;100.00;102913.44;5040085;28;20052;-72
2022/01/15 02:33:46;;;;;;;31.90;10.77;;;;;;;3.06;100.00;102905.69;5038059;28;20041;-73
2022/01/15 02:36:16;;;;;;;20.67;7.13;;;;;;;3.09;100.00;102897.81;5037411;28;20055;-73
2022/01/15 02:38:43;;;;;;;20.98;8.45;;;;;;;3.06;100.00;102896.13;5036690;28;20048;-72
2022/01/15 02:41:10;;;;;;;22.83;6.72;;;;;;;3.01;100.00;102895.34;5038146;28;20053;-73
2022/01/15 02:43:36;;;;;;;24.23;9.85;;;;;;;3.03;100.00;102890.13;5035787;28;20515;-72
2022/01/15 02:46:19;;;;;;;16.15;8.57;;;;;;;3.04;100.00;102886.66;5038617;28;21256;-74
2022/01/15 02:48:46;;;;;;;26.88;9.07;;;;;;;3.14;100.00;102883.91;5037062;28;20040;-72
2022/01/15 02:51:14;;;;;;;24.83;6.88;;;;;;;3.13;100.00;102879.56;5040737;28;20044;-72
2022/01/15 02:53:41;;;;;;;22.25;8.35;;;;;;;3.07;100.00;102873.66;5037957;28;20115;-74
2022/01/15 02:56:08;;;;;;;14.30;8.23;;;;;;;3.06;100.00;102870.16;5038990;28;20059;-72
2022/01/15 02:58:35;;;;;;;23.30;9.50;;;;;;;3.09;100.00;102875.34;5040744;28;20049;-71
2022/01/15 03:01:01;;;;;;;16.77;6.63;;;;;;;3.12;100.00;102869.22;5038363;28;20698;-72
2022/01/15 03:03:28;;;;;;;31.13;8.30;;;;;;;3.08;100.00;102858.03;5036504;28;20566;-73
2022/01/15 03:05:55;;;;;;;21.77;7.50;;;;;;;3.13;100.00;102860.56;5037282;28;20076;-72
2022/01/15 03:08:23;;;;;;;26.58;12.07;;;;;;;3.08;100.00;102860.63;5035411;28;20041;-74
2022/01/15 03:10:49;;;;;;;28.63;8.05;;;;;;;3.05;100.00;102847.69;5039185;28;20052;-74
2022/01/15 03:13:16;;;;;;;21.48;8.35;;;;;;;3.08;100.00;102847.66;5036816;28;20187;-74
2022/01/15 03:15:44;;;;;;;21.80;8.23;;;;;;;3.10;100.00;102851.09;5035715;28;20037;-74
2022/01/15 03:18:11;;;;;;;28.15;9.73;;;;;;;3.20;100.00;102853.50;5040801;28;20064;-73
2022/01/15 03:20:37;;;;;;;17.55;7.65;;;;;;;3.16;100.00;102851.81;5044230;28;20051;-73
2022/01/15 03:23:04;;;;;;;21.45;8.95;;;;;;;3.14;100.00;102844.09;5045754;28;20060;-73
2022/01/15 03:25:32;;;;;;;23.15;7.97;;;;;;;3.11;100.00;102845.03;5049479;28;20047;-74
2022/01/15 03:27:58;;;;;;;18.65;7.50;;;;;;;3.09;100.00;102832.91;5047242;28;20055;-76
2022/01/15 03:30:25;;;;;;;22.75;9.10;;;;;;;3.09;100.00;102825.13;5059178;28;20048;-74
2022/01/15 03:32:52;;;;;;;28.42;9.02;;;;;;;3.13;100.00;102827.66;5060470;28;20709;-74
2022/01/15 03:35:19;;;;;;;37.60;8.93;;;;;;;3.15;100.00;102823.31;5057704;28;20036;-73
2022/01/15 03:37:46;;;;;;;31.05;9.30;;;;;;;3.16;100.00;102824.19;5042657;28;20083;-74
2022/01/15 03:40:15;;;;;;;21.75;6.72;;;;;;;3.16;100.00;102815.47;5037921;28;20041;-74
2022/01/15 03:42:44;;;;;;;21.83;6.38;;;;;;;3.21;100.00;102818.88;5039666;28;20102;-76
2022/01/15 03:45:12;;;;;;;22.00;8.02;;;;;;;3.20;100.00;102814.56;5042399;28;20049;-73
2022/01/15 03:47:42;;;;;;;24.52;6.55;;;;;;;3.17;100.00;102811.16;5038009;28;20189;-74
2022/01/15 03:50:09;;;;;;;22.23;5.90;;;;;;;3.18;100.00;102812.88;5037382;28;20120;-74
2022/01/15 03:52:36;;;;;;;34.63;8.15;;;;;;;3.23;100.00;102816.25;5037962;28;20052;-73
2022/01/15 03:55:03;;;;;;;15.90;6.00;;;;;;;3.16;100.00;102812.03;5039065;28;20050;-74
2022/01/15 03:57:30;;;;;;;9.57;5.60;;;;;;;3.14;100.00;102805.16;5041159;28;20055;-72
2022/01/15 03:59:58;;;;;;;25.30;6.25;;;;;;;3.14;100.00;102805.16;5038364;28;20060;-73
2022/01/15 04:02:25;;;;;;;11.60;4.80;;;;;;;3.09;100.00;102802.63;5038032;28;20135;-74
2022/01/15 04:04:51;;;;;;;21.05;8.32;;;;;;;3.04;100.00;102799.22;5036726;28;20133;-73
2022/01/15 04:07:18;;;;;;;9.20;4.82;;;;;;;3.06;100.00;102792.28;5036526;28;20059;-72
2022/01/15 04:09:45;;;;;;;14.57;5.80;;;;;;;3.09;100.00;102796.56;5037786;28;20059;-73
2022/01/15 04:12:11;;;;;;;6.50;3.22;;;;;;;3.12;100.00;102789.59;5034900;28;20500;-73
2022/01/15 04:14:38;;;;;;;13.15;5.93;;;;;;;3.14;100.00;102789.59;5036098;28;20041;-73
2022/01/15 04:17:07;;;;;;;14.38;6.43;;;;;;;3.12;100.00;102775.75;5035297;28;20040;-74
2022/01/15 04:19:35;;;;;;;17.23;3.42;;;;;;;3.12;100.00;102781.78;5034822;28;20044;-74
2022/01/15 04:22:02;;;;;;;10.60;5.55;;;;;;;3.07;100.00;102773.25;5038997;28;20036;-74
2022/01/15 04:24:29;;;;;;;14.77;5.95;;;;;;;2.99;100.00;102776.84;5036821;28;20051;-73
2022/01/15 04:26:56;;;;;;;7.82;3.88;;;;;;;3.10;100.00;102787.91;5034998;28;20053;-74
2022/01/15 04:29:22;;;;;;;17.70;5.25;;;;;;;3.04;100.00;102781.06;5039209;28;20053;-74
2022/01/15 04:31:51;;;;;;;20.50;5.65;;;;;;;3.00;100.00;102776.81;5036001;28;20460;-74
2022/01/15 04:34:21;;;;;;;12.20;5.53;;;;;;;2.91;100.00;102774.38;5034032;28;20090;-74
2022/01/15 04:36:49;;;;;;;21.27;6.05;;;;;;;2.90;100.00;102779.59;5035081;28;20059;-72
2022/01/15 04:39:15;;;;;;;9.55;5.03;;;;;;;2.94;100.00;102770.84;5034355;28;20047;-74
2022/01/15 04:41:42;;;;;;;14.68;4.05;;;;;;;2.90;100.00;102769.22;5037174;28;20048;-75
2022/01/15 04:44:09;;;;;;;8.85;3.28;;;;;;;2.92;100.00;102775.22;5034637;28;20060;-75
2022/01/15 04:46:36;;;;;;;19.75;4.40;;;;;;;2.85;100.00;102764.09;5034566;28;20041;-74
2022/01/15 04:49:03;;;;;;;8.45;3.63;;;;;;;2.82;100.00;102761.53;5036273;28;20060;-73
2022/01/15 04:51:31;;;;;;;18.20;3.88;;;;;;;2.80;100.00;102765.03;5034911;28;20040;-73
2022/01/15 04:53:58;;;;;;;14.55;5.00;;;;;;;2.69;100.00;102749.63;5033117;28;20040;-74
2022/01/15 04:56:24;;;;;;;12.90;4.47;;;;;;;2.70;100.00;102750.47;5035442;28;20112;-73
2022/01/15 04:58:51;;;;;;;15.85;6.63;;;;;;;2.68;100.00;102747.03;5035140;28;20044;-73
2022/01/15 05:01:20;;;;;;;11.25;5.25;;;;;;;2.70;100.00;102742.69;5033816;28;20063;-74
2022/01/15 05:03:46;;;;;;;6.45;3.08;;;;;;;2.67;100.00;102732.34;5036631;28;20162;-73
2022/01/15 05:06:13;;;;;;;11.80;4.40;;;;;;;2.68;100.00;102740.13;5035721;28;20045;-74
2022/01/15 05:08:44;;;;;;;8.77;5.60;;;;;;;2.62;100.00;102742.84;5036846;28;20040;-75
2022/01/15 05:11:25;;;;;;;7.25;3.47;;;;;;;2.61;100.00;102756.69;5036393;28;20055;-74
2022/01/15 05:14:12;;;;;;;4.05;2.40;;;;;;;2.58;100.00;102750.69;5038236;28;20059;-73
2022/01/15 05:16:39;;;;;;;13.70;3.65;;;;;;;2.58;100.00;102748.09;5036686;28;20125;-75
2022/01/15 05:19:06;;;;;;;11.68;3.72;;;;;;;2.58;100.00;102755.88;5039572;28;20052;-73
2022/01/15 05:21:32;;;;;;;8.25;4.18;;;;;;;2.62;100.00;102752.34;5038184;28;20049;-74
2022/01/15 05:24:01;;;;;;;8.20;3.67;;;;;;;2.64;100.00;102753.19;5033778;28;20128;-73
2022/01/15 05:26:27;;;;;;;8.38;3.88;;;;;;;2.58;100.00;102755.88;5035013;28;20182;-73
2022/01/15 05:28:54;;;;;;;11.85;4.85;;;;;;;2.58;100.00;102750.69;5035691;28;20628;-72
2022/01/15 05:31:20;;;;;;;6.50;3.90;;;;;;;2.57;100.00;102748.97;5041168;28;20041;-73
2022/01/15 05:33:47;;;;;;;5.53;2.88;;;;;;;2.57;100.00;102754.16;5041253;28;20052;-72
2022/01/15 05:36:13;;;;;;;5.22;3.03;;;;;;;2.52;100.00;102751.63;5041633;28;20048;-75
2022/01/15 05:38:40;;;;;;;14.25;4.72;;;;;;;2.51;100.00;102749.03;5040235;28;20056;-72
2022/01/15 05:41:08;;;;;;;4.97;3.78;;;;;;;2.46;100.00;102749.09;5041808;28;20056;-73
2022/01/15 05:43:34;;;;;;;7.93;3.25;;;;;;;2.46;100.00;102746.50;5041583;28;20188;-75
2022/01/15 05:46:01;;;;;;;7.50;3.15;;;;;;;2.43;100.00;102738.78;5043246;28;20059;-73
2022/01/15 05:48:28;;;;;;;3.88;2.22;;;;;;;2.32;100.00;102747.59;5042610;28;20052;-75
2022/01/15 05:50:54;;;;;;;8.73;4.63;;;;;;;2.31;100.00;102751.06;5041600;28;20132;-73
2022/01/15 05:53:22;;;;;;;34.50;5.22;;;;;;;2.20;100.00;102747.75;5042259;28;20056;-74
2022/01/15 05:55:48;;;;;;;9.10;4.18;;;;;;;2.14;100.00;102737.47;5040550;28;20044;-73
2022/01/15 05:58:16;;;;;;;9.32;3.50;;;;;;;2.09;100.00;102738.41;5041550;28;20052;-73
2022/01/15 06:00:44;;;;;;;7.55;3.78;;;;;;;2.10;100.00;102733.19;5043173;28;20498;-73
2022/01/15 06:03:11;;;;;;;4.70;2.97;;;;;;;2.10;100.00;102730.59;5044388;28;20076;-73
2022/01/15 06:05:37;;;;;;;10.23;4.90;;;;;;;2.08;100.00;102732.38;5047930;28;20353;-72
2022/01/15 06:08:05;;;;;;;10.68;5.65;;;;;;;2.05;100.00;102726.38;5057566;28;20045;-73
2022/01/15 06:10:31;;;;;;;13.00;5.18;;;;;;;2.01;100.00;102730.72;5058843;28;20064;-73
2022/01/15 06:12:59;;;;;;;6.70;4.97;;;;;;;1.92;100.00;102720.50;5064780;28;20127;-74
2022/01/15 06:15:27;;;;;;;9.10;5.28;;;;;;;1.95;100.00;102724.78;5039736;28;20048;-74
2022/01/15 06:17:54;;;;;;;8.48;4.68;;;;;;;1.90;100.00;102722.22;5043694;28;20094;-75
2022/01/15 06:20:20;;;;;;;12.52;4.03;;;;;;;1.80;100.00;102720.63;5056059;28;20037;-73
2022/01/15 06:22:50;;;;;;;13.88;6.35;;;;;;;1.79;100.00;102713.72;5052948;28;20483;-73
2022/01/15 06:25:16;;;;;;;20.33;5.50;;;;;;;1.76;100.00;102713.78;5054029;28;20047;-73
2022/01/15 06:27:43;;;;;;;10.75;5.18;;;;;;;1.75;100.00;102718.97;5051427;28;20041;-74
2022/01/15 06:30:10;;;;;;;8.30;4.90;;;;;;;1.75;100.00;102713.78;5050252;28;20077;-72
2022/01/15 06:32:38;;;;;;;6.10;4.25;;;;;;;1.74;100.00;102714.66;5049853;28;20051;-73
2022/01/15 06:35:06;;;;;;;7.15;4.25;;;;;;;1.75;100.00;102704.28;5059827;28;20075;-74
2022/01/15 06:37:33;;;;;;;7.65;4.60;;;;;;;1.79;100.00;102707.69;5054709;28;20051;-73
2022/01/15 06:40:00;;;;;;;12.70;6.32;;;;;;;1.77;100.00;102712.88;5057955;28;20583;-72
2022/01/15 06:42:26;;;;;;;9.13;4.50;;;;;;;1.74;100.00;102707.75;5047978;28;20052;-74
2022/01/15 06:44:53;;;;;;;7.85;5.72;;;;;;;1.64;100.00;102708.72;5056829;28;20068;-74
2022/01/15 06:47:19;;;;;;;13.90;3.83;;;;;;;1.66;100.00;102707.00;5055786;28;20059;-74
2022/01/15 06:49:48;;;;;;;10.95;5.10;;;;;;;1.64;100.00;102708.72;5054426;28;20506;-73
2022/01/15 06:52:14;;;;;;;10.48;3.90;;;;;;;1.73;100.00;102708.63;5051337;28;20061;-74
2022/01/15 06:54:41;;;;;;;9.77;5.15;;;;;;;1.67;100.00;102703.53;5055379;28;20090;-73
2022/01/15 06:57:07;;;;;;;9.82;6.82;;;;;;;1.72;100.00;102711.25;5054302;28;20095;-73
2022/01/15 06:59:34;;;;;;;12.38;5.55;;;;;;;1.68;100.00;102709.56;5055355;28;20040;-72
2022/01/15 07:02:05;;;;;;;11.85;3.97;;;;;;;1.49;100.00;102697.69;5051517;28;20043;-73
2022/01/15 07:04:31;;;;;;;6.45;4.22;;;;;;;1.48;100.00;102705.47;5052689;28;20064;-74
2022/01/15 07:06:59;;;;;;;14.75;4.55;;;;;;;1.52;100.00;102697.66;5058778;28;20047;-73
2022/01/15 07:09:26;;;;;;;14.15;4.28;;;;;;;1.50;100.00;102698.56;5054572;28;20123;-72
2022/01/15 07:11:52;;;;;;;6.85;4.13;;;;;;;1.44;100.00;102703.81;5057583;28;20123;-73
2022/01/15 07:14:19;;;;;;;14.50;5.25;;;;;;;1.43;100.00;102702.94;5060548;28;20127;-72
2022/01/15 07:16:45;;;;;;;13.27;5.50;;;;;;;1.40;100.00;102694.34;5049447;28;20041;-73
2022/01/15 07:19:12;;;;;;;7.40;4.28;;;;;;;1.41;100.00;102693.47;5048639;28;20080;-73
2022/01/15 07:21:40;;;;;;;16.23;5.45;;;;;;;1.45;100.00;102689.97;5063013;28;20037;-72
2022/01/15 07:24:08;;;;;;;14.57;4.03;;;;;;;1.48;100.00;102698.56;5054739;28;20045;-73
2022/01/15 07:26:35;;;;;;;6.05;3.05;;;;;;;1.48;100.00;102693.38;5050367;28;20036;-72
2022/01/15 07:29:01;;;;;;;7.57;3.95;;;;;;;1.50;100.00;102699.41;5058707;28;20044;-72
2022/01/15 07:31:28;;;;;;;4.38;3.03;;;;;;;1.39;100.00;102700.41;5053289;28;20048;-74
2022/01/15 07:33:54;;;;;;;7.88;3.45;;;;;;;1.36;100.00;102692.66;5046220;28;20049;-72
2022/01/15 07:36:21;;;;;;;6.85;5.32;;;;;;;1.36;100.00;102695.25;5047475;28;20050;-73
2022/01/15 07:38:47;;;;;;;2.33;2.13;;;;;;;1.46;100.00;102697.75;5057192;28;20044;-72
2022/01/15 07:41:15;;;;;;;10.57;5.28;;;;;;;1.44;100.00;102702.06;5055349;28;20147;-72
2022/01/15 07:43:43;;;;;;;6.47;4.28;;;;;;;1.44;100.00;102706.41;5052239;28;20061;-73
2022/01/15 07:46:09;;;;;;;5.97;3.83;;;;;;;1.48;100.00;102702.88;5045816;28;20041;-72
2022/01/15 07:48:36;;;;;;;3.83;3.05;;;;;;;1.46;100.00;102697.75;5056311;28;20068;-73
2022/01/15 07:51:02;;;;;;;7.47;4.40;;;;;;;1.42;100.00;102701.22;5049428;28;20124;-73
2022/01/15 07:53:29;;;;;;;6.65;3.58;;;;;;;1.44;100.00;102706.41;5053027;28;20130;-73
2022/01/15 07:55:55;;;;;;;15.75;5.18;;;;;;;1.43;100.00;102694.31;5050947;28;20049;-72
2022/01/15 07:58:23;;;;;;;6.38;3.45;;;;;;;1.38;100.00;102693.50;5053980;28;20029;-74
2022/01/15 08:00:50;;;;;;;5.10;3.22;;;;;;;1.45;100.00;102684.78;5048791;28;20048;-73
2022/01/15 08:03:17;;;;;;;10.95;5.90;;;;;;;1.44;100.00;102689.13;5049610;28;20063;-72
2022/01/15 08:05:44;;;;;;;11.45;3.72;;;;;;;1.50;100.00;102683.03;5051230;28;20068;-72
2022/01/15 08:08:11;;;;;;;6.90;3.85;;;;;;;1.52;100.00;102684.72;5050692;28;20073;-73
2022/01/15 08:10:38;;;;;;;12.48;3.20;;;;;;;1.52;100.00;102686.47;5055185;28;20032;-71
2022/01/15 08:13:04;;;;;;;3.97;3.13;;;;;;;1.56;100.00;102683.78;5044816;28;20059;-71
2022/01/15 08:15:33;;;;;;;9.77;3.75;;;;;;;1.54;100.00;102685.56;5050704;28;20041;-72
2022/01/15 08:17:59;;;;;;;5.43;2.15;;;;;;;1.54;100.00;102674.31;5051575;28;20061;-72
2022/01/15 08:20:26;;;;;;;8.02;4.40;;;;;;;1.62;100.00;102678.56;5050730;28;20487;-73
2022/01/15 08:22:52;;;;;;;7.72;5.45;;;;;;;1.57;100.00;102679.47;5052078;28;20122;-72
2022/01/15 08:25:20;;;;;;;6.50;4.38;;;;;;;1.63;100.00;102670.75;5046620;28;20553;-71
2022/01/15 08:27:47;;;;;;;17.70;5.53;;;;;;;1.61;100.00;102672.50;5052881;28;20068;-71
2022/01/15 08:30:15;;;;;;;7.38;4.43;;;;;;;1.62;100.00;102676.81;5053029;28;20117;-72
2022/01/15 08:32:44;;;;;;;12.40;4.35;;;;;;;1.65;100.00;102684.56;5051935;28;20059;-73
2022/01/15 08:35:13;;;;;;;10.73;6.25;;;;;;;1.70;100.00;102684.50;5056368;28;20090;-72
2022/01/15 08:37:40;;;;;;;8.60;3.95;;;;;;;1.70;100.00;102676.72;5055784;28;20041;-72
2022/01/15 08:40:14;;;;;;;8.52;5.00;;;;;;;1.62;100.00;102671.63;5054530;28;20045;-72
2022/01/15 08:42:44;;;;;;;8.00;4.93;;;;;;;1.69;100.00;102677.59;5057363;28;20053;-70
2022/01/15 08:45:13;;;;;;;16.02;6.65;;;;;;;1.76;100.00;102671.47;5066559;28;20045;-71
2022/01/15 08:47:40;;;;;;;7.80;5.20;;;;;;;1.77;100.00;102674.03;5074726;28;20051;-72
2022/01/15 08:50:09;;;;;;;3.92;2.60;;;;;;;1.90;100.00;102665.22;5072456;28;20049;-72
2022/01/15 08:52:37;;;;;;;15.20;5.82;;;;;;;1.90;100.00;102674.72;5053366;28;20123;-73
2022/01/15 08:55:03;;;;;;;31.42;6.97;;;;;;;1.77;100.00;102668.84;5048657;28;20044;-72
2022/01/15 08:57:30;;;;;;;13.50;5.40;;;;;;;1.75;100.00;102664.56;5048314;28;20044;-73
2022/01/15 08:59:56;;;;;;;16.20;6.72;;;;;;;1.73;100.00;102661.13;5049269;28;20052;-71
2022/01/15 09:02:23;;;;;;;9.05;3.38;;;;;;;1.84;100.00;102657.56;5044699;28;20048;-72
2022/01/15 09:04:50;;;;;;;44.50;7.07;;;;;;;1.82;100.00;102661.00;5049067;28;20044;-72
2022/01/15 09:07:18;;;;;;;12.73;7.22;;;;;;;1.85;100.00;102663.56;5050236;28;20351;-70
2022/01/15 09:09:44;;;;;;;13.25;7.10;;;;;;;1.80;100.00;102665.38;5058091;28;20102;-71
2022/01/15 09:12:12;;;;;;;13.75;5.97;;;;;;;1.73;100.00;102659.41;5057414;28;20055;-73
2022/01/15 09:14:38;;;;;;;17.67;7.10;;;;;;;1.72;100.00;102662.88;5057536;28;20041;-71
2022/01/15 09:17:05;;;;;;;71.50;9.32;;;;;;;1.83;100.00;102662.72;5053887;28;20491;-73
2022/01/15 09:19:32;;;;;;;19.10;7.15;;;;;;;1.82;100.00;102656.69;5051111;28;20044;-73
2022/01/15 09:21:59;;;;;;;11.88;6.25;;;;;;;1.86;100.00;102657.53;5053005;28;20064;-73
2022/01/15 09:24:27;;;;;;;52.05;10.52;;;;;;;1.93;100.00;102649.63;5051983;28;20041;-73
2022/01/15 09:27:03;;;;;;;29.73;6.07;;;;;;;1.92;100.00;102647.06;5049658;28;20052;-73
2022/01/15 09:32:14;;;;;;;13.25;7.88;;;;;;;2.02;100.00;102646.91;5052393;28;20044;-71
2022/01/15 09:34:41;;;;;;;13.55;7.00;;;;;;;2.07;100.00;102641.66;5053208;28;20044;-70
2022/01/15 09:37:08;;;;;;;23.85;7.20;;;;;;;2.20;100.00;102643.22;5052379;28;20060;-73
2022/01/15 09:39:36;;;;;;;16.80;8.25;;;;;;;2.07;100.00;102647.72;5048434;28;20044;-72
2022/01/15 09:42:04;;;;;;;9.77;7.97;;;;;;;1.92;100.00;102641.88;5052298;28;20047;-71
2022/01/15 09:44:33;;;;;;;17.73;5.93;;;;;;;2.01;100.00;102642.59;5047575;28;20129;-70
2022/01/15 09:46:59;;;;;;;15.32;7.05;;;;;;;2.02;100.00;102638.28;5052572;28;20569;-71
2022/01/15 09:49:27;;;;;;;13.93;8.00;;;;;;;1.95;100.00;102642.69;5053810;28;20048;-72
2022/01/15 09:51:54;;;;;;;9.10;4.70;;;;;;;2.00;100.00;102646.09;5054105;28;20483;-71
2022/01/15 09:54:20;;;;;;;16.45;6.15;;;;;;;1.96;100.00;102639.22;5052387;28;20056;-72
2022/01/15 09:56:49;;;;;;;22.48;7.53;;;;;;;1.89;100.00;102650.56;5055924;28;20131;-71
2022/01/15 09:59:16;;;;;;;12.48;7.00;;;;;;;1.80;100.00;102635.13;5053112;28;20032;-71
2022/01/15 10:01:43;;;;;;;21.60;6.45;;;;;;;1.81;100.00;102628.19;5051687;28;20114;-71
2022/01/15 10:04:10;;;;;;;12.55;7.50;;;;;;;1.90;100.00;102636.72;5054091;28;20139;-73
2022/01/15 10:06:36;;;;;;;12.45;7.05;;;;;;;1.95;100.00;102637.50;5050019;28;20109;-73
2022/01/15 10:09:05;;;;;;;12.63;6.50;;;;;;;2.04;100.00;102631.34;5051108;28;20044;-72
2022/01/15 10:11:46;;;;;;;12.05;8.10;;;;;;;2.11;100.00;102632.97;5049127;28;20044;-71
2022/01/15 10:14:28;;;;;;;10.20;7.90;;;;;;;2.28;100.00;102634.41;5055678;28;20052;-73
2022/01/15 10:16:56;;;;;;;15.77;8.15;;;;;;;2.30;100.00;102635.25;5051619;28;20055;-72
2022/01/15 10:19:35;;;;;;;13.18;7.53;;;;;;;2.23;100.00;102637.97;5050893;28;20045;-73
2022/01/15 10:22:08;;;;;;;30.70;9.98;;;;;;;2.29;100.00;102638.72;5059016;28;20059;-71
2022/01/15 10:24:35;;;;;;;17.38;8.18;;;;;;;2.38;100.00;102634.25;5045151;28;20033;-71
2022/01/15 10:27:21;;;;;;;17.35;11.32;;;;;;;2.45;100.00;102632.41;5053911;28;20032;-72
2022/01/15 10:29:57;;;;;;;19.25;7.85;;;;;;;2.44;100.00;102630.72;5052122;28;20045;-71
2022/01/15 10:32:25;;;;;;;16.38;8.30;;;;;;;2.46;100.00;102634.13;5048622;28;20046;-72
2022/01/15 10:34:51;;;;;;;15.52;7.15;;;;;;;2.48;100.00;102632.38;5053233;28;20033;-72
2022/01/15 10:37:20;;;;;;;11.77;6.20;;;;;;;2.48;100.00;102634.97;5048531;28;20048;-73
2022/01/15 10:40:02;;;;;;;16.92;9.05;;;;;;;2.36;100.00;102622.19;5055079;28;20444;-74
2022/01/15 10:42:28;;;;;;;;;;;;;;;2.51;100.00;102628.00;5050786;28;20139;-72
2022/01/15 10:44:58;;;;;;;9.30;6.53;;;;;;;2.44;100.00;102617.75;5054092;28;20028;-71
2022/01/15 10:47:26;;;;;;;11.32;6.50;;;;;;;2.47;100.00;102620.28;5052909;28;20048;-71
2022/01/15 10:49:57;;;;;;;12.93;6.70;;;;;;;2.42;100.00;102624.72;5053762;28;20064;-71
2022/01/15 10:52:25;;;;;;;36.47;9.55;;;;;;;2.50;100.00;102617.66;5054568;28;20040;-72
2022/01/15 10:54:58;;;;;;;19.80;7.47;;;;;;;2.50;100.00;102623.69;5053579;28;20076;-74
2022/01/15 10:57:27;;;;;;;18.52;8.90;;;;;;;2.56;100.00;102622.75;5049235;28;21433;-74
2022/01/15 11:00:06;;;;;;;15.95;7.55;;;;;;;2.55;100.00;102626.22;5052091;28;20095;-73
2022/01/15 11:02:33;;;;;;;16.88;7.25;;;;;;;2.61;100.00;102623.50;5062828;28;20040;-72
2022/01/15 11:05:00;;;;;;;18.73;6.78;;;;;;;2.60;100.00;102620.06;5056602;28;20053;-72
2022/01/15 11:07:27;;;;;;;13.65;6.00;;;;;;;2.63;100.00;102619.16;5049016;28;20385;-73
2022/01/15 11:09:54;;;;;;;11.20;7.13;;;;;;;2.69;99.84;102600.88;5055810;28;20122;-72
2022/01/15 11:12:26;;;;;;;10.40;5.45;;;;;;;2.69;99.79;102606.06;5051122;28;20135;-72
2022/01/15 11:14:52;;;;;;;10.40;7.28;;;;;;;2.66;99.78;102598.34;5052810;28;20162;-73
2022/01/15 11:17:21;;;;;;;46.25;7.85;;;;;;;2.49;99.97;102601.22;5055612;28;20535;-73
2022/01/15 11:19:54;;;;;;;12.52;5.65;;;;;;;2.54;100.00;102595.97;5056705;28;20082;-72
2022/01/15 11:22:22;;;;;;;29.95;7.78;;;;;;;2.69;100.00;102593.97;5064676;28;20058;-71
2022/01/15 11:24:50;;;;;;;17.58;8.48;;;;;;;2.74;100.00;102588.69;5062511;28;20048;-71
2022/01/15 11:27:17;;;;;;;19.13;8.93;;;;;;;2.70;100.00;102594.81;5080358;28;20044;-70
2022/01/15 11:29:46;;;;;;;9.82;5.40;;;;;;;2.59;99.79;102584.63;5054562;28;20894;-71
2022/01/15 11:32:22;;;;;;;12.75;5.25;;;;;;;2.60;100.00;102593.25;5057111;28;20051;-71
2022/01/15 11:35:07;;;;;;;8.93;5.72;;;;;;;2.70;100.00;102580.13;5050821;28;20045;-71
2022/01/15 11:37:47;;;;;;;14.98;7.22;;;;;;;2.84;99.99;102574.66;5057598;28;20041;-73
2022/01/15 11:40:37;;;;;;;10.88;7.15;;;;;;;2.89;99.87;102560.72;5052672;28;20091;-72
2022/01/15 11:43:42;;;;;;;17.60;7.25;;;;;;;2.82;99.68;102568.66;5053820;28;20048;-72